createdAt,value
2018-08-04T00:00:33.993Z,99973.39
2018-08-04T00:03:01.615Z,99974.94
2018-08-04T00:05:29.365Z,99971.70
2018-08-04T00:07:57.086Z,99977.58
2018-08-04T00:10:24.845Z,99973.56
2018-08-04T00:12:52.941Z,99971.41
2018-08-04T00:15:20.762Z,99970.39
2018-08-04T00:17:48.949Z,99970.88
2018-08-04T00:20:16.925Z,99972.51
2018-08-04T00:22:44.730Z,99963.92
2018-08-04T00:25:12.437Z,99969.55
2018-08-04T00:27:40.134Z,99966.62
2018-08-04T00:30:11.002Z,99972.80
2018-08-04T00:32:38.753Z,99969.55
2018-08-04T00:35:06.881Z,99971.42
2018-08-04T00:37:34.532Z,99966.62
2018-08-04T00:40:02.197Z,99959.39
2018-08-04T00:42:29.870Z,99965.50
2018-08-04T00:44:57.575Z,99970.55
2018-08-04T00:47:25.184Z,99969.25
2018-08-04T00:49:52.865Z,99963.09
2018-08-04T00:52:20.565Z,99960.72
2018-08-04T00:54:48.209Z,99964.45
2018-08-04T00:57:15.973Z,99957.75
2018-08-04T00:59:43.600Z,99956.59
2018-08-04T01:02:11.293Z,99952.50
2018-08-04T01:04:39.049Z,99955.21
2018-08-04T01:07:07.025Z,99953.58
2018-08-04T01:09:34.753Z,99954.94
2018-08-04T01:12:02.488Z,99950.92
2018-08-04T01:14:30.190Z,99957.55
2018-08-04T01:16:58.424Z,99955.96
2018-08-04T01:19:26.083Z,99949.80
2018-08-04T01:21:59.088Z,99955.27
2018-08-04T01:24:26.773Z,99957.94
2018-08-04T01:26:54.394Z,99958.13
2018-08-04T01:29:22.086Z,99955.21
2018-08-04T01:31:49.742Z,99961.64
2018-08-04T01:34:17.421Z,99961.34
2018-08-04T01:36:45.149Z,99960.36
2018-08-04T01:39:12.765Z,99957.57
2018-08-04T01:41:40.437Z,99959.39
2018-08-04T01:44:08.210Z,99962.87
2018-08-04T01:46:35.965Z,99957.57
2018-08-04T01:49:03.729Z,99965.48
2018-08-04T01:51:31.423Z,99971.23
2018-08-04T01:53:59.166Z,99961.03
2018-08-04T01:56:26.785Z,99957.91
2018-08-04T01:58:54.392Z,99955.54
2018-08-04T02:01:22.121Z,99963.49
2018-08-04T02:03:49.741Z,99950.98
2018-08-04T02:06:17.494Z,99957.38
2018-08-04T02:08:45.232Z,99953.02
2018-08-04T02:11:12.894Z,99952.25
2018-08-04T02:13:40.542Z,99950.08
2018-08-04T02:16:08.270Z,99952.55
2018-08-04T02:18:35.933Z,99950.22
2018-08-04T02:21:03.616Z,99946.36
2018-08-04T02:23:31.264Z,99945.48
2018-08-04T02:25:58.991Z,99948.39
2018-08-04T02:28:26.612Z,99943.69
2018-08-04T02:30:54.222Z,99945.83
2018-08-04T02:33:22.196Z,99944.42
2018-08-04T02:38:24.245Z,99943.00
2018-08-04T02:40:51.863Z,99938.61
2018-08-04T02:43:19.482Z,99941.52
2018-08-04T02:45:47.255Z,99938.41
2018-08-04T02:48:15.004Z,99938.67
2018-08-04T02:50:42.648Z,99937.99
2018-08-04T02:53:10.282Z,99937.45
2018-08-04T02:55:37.923Z,99932.95
2018-08-04T02:58:05.645Z,99936.17
2018-08-04T03:00:33.285Z,99933.94
2018-08-04T03:03:00.978Z,99933.94
2018-08-04T03:05:28.638Z,99937.81
2018-08-04T03:07:56.280Z,99930.95
2018-08-04T03:10:36.923Z,99937.42
2018-08-04T03:13:05.217Z,99936.30
2018-08-04T03:15:32.831Z,99934.83
2018-08-04T03:18:00.525Z,99943.51
2018-08-04T03:20:28.246Z,99941.20
2018-08-04T03:22:55.861Z,99950.08
2018-08-04T03:25:23.486Z,99944.73
2018-08-04T03:27:51.118Z,99952.48
2018-08-04T03:30:18.767Z,99954.92
2018-08-04T03:32:46.542Z,99948.57
2018-08-04T03:35:14.220Z,99953.84
2018-08-04T03:37:41.957Z,99965.66
2018-08-04T03:40:09.620Z,99961.79
2018-08-04T03:42:37.633Z,99966.41
2018-08-04T03:45:05.505Z,99969.10
2018-08-04T03:47:33.146Z,99968.02
2018-08-04T03:50:00.894Z,99972.55
2018-08-04T03:52:28.588Z,99973.28
2018-08-04T03:54:56.225Z,99981.01
2018-08-04T03:57:23.842Z,99982.79
2018-08-04T03:59:51.518Z,99977.98
2018-08-04T04:02:19.518Z,99986.09
2018-08-04T04:04:47.141Z,99991.26
2018-08-04T04:07:15.078Z,99984.66
2018-08-04T04:09:42.806Z,99987.11
2018-08-04T04:12:10.458Z,99989.92
2018-08-04T04:14:38.130Z,99994.79
2018-08-04T04:17:05.830Z,99995.89
2018-08-04T04:19:33.461Z,99987.16
2018-08-04T04:22:01.098Z,99991.09
2018-08-04T04:24:28.807Z,99993.48
2018-08-04T04:26:56.417Z,99995.45
2018-08-04T04:29:24.117Z,99990.70
2018-08-04T04:31:51.854Z,99988.05
2018-08-04T04:34:19.535Z,99980.38
2018-08-04T04:36:47.344Z,99988.45
2018-08-04T04:39:14.925Z,99987.11
2018-08-04T04:41:42.633Z,99989.77
2018-08-04T04:44:10.357Z,99997.80
2018-08-04T04:46:39.489Z,99993.36
2018-08-04T04:49:09.101Z,99999.94
2018-08-04T04:51:36.797Z,99999.35
2018-08-04T04:54:04.947Z,99999.34
2018-08-04T04:56:32.724Z,100005.91
2018-08-04T04:59:00.337Z,100008.94
2018-08-04T05:01:28.234Z,100010.61
2018-08-04T05:03:56.106Z,100016.09
2018-08-04T05:06:23.837Z,100012.88
2018-08-04T05:08:51.483Z,100017.95
2018-08-04T05:11:19.153Z,100010.52
2018-08-04T05:13:47.081Z,100020.37
2018-08-04T05:16:14.828Z,100012.34
2018-08-04T05:18:42.633Z,100013.46
2018-08-04T05:21:10.333Z,100015.50
2018-08-04T05:23:38.022Z,100013.61
2018-08-04T05:26:05.806Z,100018.33
2018-08-04T05:28:33.521Z,100021.28
2018-08-04T05:31:01.182Z,100019.52
2018-08-04T05:33:28.829Z,100026.08
2018-08-04T05:35:56.676Z,100027.28
2018-08-04T05:38:24.443Z,100029.11
2018-08-04T05:40:52.141Z,100030.27
2018-08-04T05:43:19.843Z,100033.16
2018-08-04T05:45:47.470Z,100032.89
2018-08-04T05:48:15.121Z,100028.34
2018-08-04T05:50:42.761Z,100037.99
2018-08-04T05:53:10.477Z,100032.22
2018-08-04T05:55:38.135Z,100030.43
2018-08-04T05:58:06.274Z,100032.59
2018-08-04T06:00:33.882Z,100029.89
2018-08-04T06:03:01.555Z,100027.34
2018-08-04T06:05:29.212Z,100030.66
2018-08-04T06:07:57.201Z,100029.94
2018-08-04T06:10:37.386Z,100033.40
2018-08-04T06:13:05.147Z,100026.25
2018-08-04T06:15:32.833Z,100029.20
2018-08-04T06:18:00.547Z,100028.39
2018-08-04T06:20:28.339Z,100031.87
2018-08-04T06:22:56.032Z,100035.89
2018-08-04T06:25:23.726Z,100039.09
2018-08-04T06:27:51.369Z,100038.78
2018-08-04T06:30:19.034Z,100042.23
2018-08-04T06:32:46.832Z,100043.31
2018-08-04T06:35:14.470Z,100042.28
2018-08-04T06:37:42.234Z,100045.19
2018-08-04T06:40:10.007Z,100040.13
2018-08-04T06:42:37.769Z,100035.64
2018-08-04T06:45:05.966Z,100032.41
2018-08-04T06:47:33.677Z,100032.97
2018-08-04T06:50:01.477Z,100038.05
2018-08-04T06:52:29.125Z,100038.52
2018-08-04T06:54:56.845Z,100038.23
2018-08-04T06:57:24.517Z,100035.23
2018-08-04T06:59:53.098Z,100037.13
2018-08-04T07:02:20.994Z,100033.59
2018-08-04T07:04:48.841Z,100031.30
2018-08-04T07:07:16.510Z,100033.12
2018-08-04T07:09:44.213Z,100037.02
2018-08-04T07:12:12.007Z,100032.56
2018-08-04T07:14:39.749Z,100029.50
2018-08-04T07:17:07.818Z,100033.34
2018-08-04T07:19:35.454Z,100024.75
2018-08-04T07:22:03.162Z,100030.82
2018-08-04T07:24:30.902Z,100027.38
2018-08-04T07:26:58.641Z,100024.23
2018-08-04T07:29:26.391Z,100024.31
2018-08-04T07:31:54.109Z,100020.39
2018-08-04T07:34:22.133Z,100021.73
2018-08-04T07:36:49.810Z,100021.98
2018-08-04T07:39:17.475Z,100018.66
2018-08-04T07:41:45.154Z,100021.29
2018-08-04T07:44:12.946Z,100025.41
2018-08-04T07:46:40.672Z,100025.78
2018-08-04T07:49:08.339Z,100031.25
2018-08-04T07:51:36.014Z,100029.51
2018-08-04T07:54:03.700Z,100034.34
2018-08-04T07:56:31.468Z,100030.11
2018-08-04T07:58:59.121Z,100037.14
2018-08-04T08:01:26.862Z,100041.94
2018-08-04T08:03:54.622Z,100041.69
2018-08-04T08:06:22.437Z,100042.93
2018-08-04T08:08:50.139Z,100041.25
2018-08-04T08:11:18.078Z,100045.84
2018-08-04T08:13:45.794Z,100045.88
2018-08-04T08:16:13.546Z,100041.45
2018-08-04T08:18:41.217Z,100039.23
2018-08-04T08:21:08.965Z,100043.39
2018-08-04T08:23:36.599Z,100044.23
2018-08-04T08:26:08.205Z,100042.47
2018-08-04T08:28:36.262Z,100043.81
2018-08-04T08:31:04.047Z,100046.09
2018-08-04T08:33:31.916Z,100047.88
2018-08-04T08:35:59.583Z,100047.02
2018-08-04T08:38:27.662Z,100049.41
2018-08-04T08:40:55.355Z,100048.55
2018-08-04T08:43:23.024Z,100041.98
2018-08-04T08:45:50.653Z,100041.41
2018-08-04T08:48:18.424Z,100044.84
2018-08-04T08:50:46.126Z,100038.12
2018-08-04T08:53:13.896Z,100038.90
2018-08-04T08:55:41.589Z,100033.31
2018-08-04T08:58:10.023Z,100032.41
2018-08-04T09:00:37.960Z,100031.77
2018-08-04T09:03:06.086Z,100027.41
2018-08-04T09:05:33.777Z,100027.00
2018-08-04T09:08:01.423Z,100020.98
2018-08-04T09:10:37.626Z,100022.98
2018-08-04T09:13:05.389Z,100024.63
2018-08-04T09:15:33.180Z,100026.08
2018-08-04T09:18:00.818Z,100025.62
2018-08-04T09:20:28.475Z,100031.84
2018-08-04T09:22:56.250Z,100019.50
2018-08-04T09:25:24.340Z,100012.80
2018-08-04T09:27:52.356Z,100016.02
2018-08-04T09:30:21.509Z,100013.89
2018-08-04T09:32:49.405Z,100004.03
2018-08-04T09:35:17.162Z,100007.23
2018-08-04T09:37:45.318Z,100014.44
2018-08-04T09:40:14.642Z,100008.94
2018-08-04T09:42:43.459Z,100000.00
2018-08-04T09:45:11.215Z,100002.74
2018-08-04T09:47:39.670Z,99998.75
2018-08-04T09:50:08.885Z,99999.80
2018-08-04T09:52:36.650Z,99995.55
2018-08-04T09:55:05.349Z,99992.98
2018-08-04T09:57:33.105Z,99992.98
2018-08-04T10:00:00.803Z,99998.12
2018-08-04T10:02:28.521Z,99994.99
2018-08-04T10:04:56.705Z,99999.74
2018-08-04T10:07:24.472Z,99990.80
2018-08-04T10:09:52.238Z,99987.97
2018-08-04T10:12:19.968Z,99991.88
2018-08-04T10:14:47.741Z,99992.73
2018-08-04T10:17:15.419Z,99993.41
2018-08-04T10:19:43.073Z,99993.25
2018-08-04T10:22:11.565Z,99990.67
2018-08-04T10:24:39.569Z,99986.63
2018-08-04T10:27:07.371Z,99983.19
2018-08-04T10:29:35.442Z,99984.58
2018-08-04T10:32:03.227Z,99981.95
2018-08-04T10:34:30.792Z,99989.36
2018-08-04T10:36:58.454Z,99989.34
2018-08-04T10:39:26.109Z,99989.48
2018-08-04T10:41:53.809Z,99987.13
2018-08-04T10:44:21.473Z,99985.78
2018-08-04T10:46:49.233Z,99974.48
2018-08-04T10:49:16.955Z,99983.86
2018-08-04T10:51:44.734Z,99979.41
2018-08-04T10:54:12.542Z,99970.11
2018-08-04T10:56:40.169Z,99967.02
2018-08-04T10:59:07.866Z,99969.64
2018-08-04T11:01:35.643Z,99966.61
2018-08-04T11:04:03.314Z,99972.81
2018-08-04T11:06:31.034Z,99969.75
2018-08-04T11:08:58.817Z,99970.55
2018-08-04T11:11:26.731Z,99974.19
2018-08-04T11:13:54.414Z,99973.33
2018-08-04T11:16:22.058Z,99963.45
2018-08-04T11:18:49.738Z,99967.20
2018-08-04T11:21:17.389Z,99961.79
2018-08-04T11:23:45.102Z,99958.03
2018-08-04T11:26:12.764Z,99962.82
2018-08-04T11:28:40.432Z,99961.68
2018-08-04T11:31:08.154Z,99956.80
2018-08-04T11:33:36.107Z,99955.44
2018-08-04T11:36:03.782Z,99953.06
2018-08-04T11:38:31.429Z,99956.55
2018-08-04T11:40:59.105Z,99960.08
2018-08-04T11:43:26.725Z,99956.78
2018-08-04T11:45:54.451Z,99953.51
2018-08-04T11:48:22.124Z,99951.46
2018-08-04T11:50:49.823Z,99951.10
2018-08-04T11:53:17.576Z,99945.36
2018-08-04T11:55:45.199Z,99939.50
2018-08-04T11:58:12.953Z,99942.79
2018-08-04T12:00:40.592Z,99936.58
2018-08-04T12:03:08.445Z,99931.53
2018-08-04T12:05:36.061Z,99925.92
2018-08-04T12:08:04.039Z,99923.60
2018-08-04T12:10:37.957Z,99924.34
2018-08-04T12:13:05.633Z,99915.05
2018-08-04T12:15:33.322Z,99919.21
2018-08-04T12:18:01.073Z,99923.00
2018-08-04T12:20:28.822Z,99922.36
2018-08-04T12:22:56.445Z,99916.79
2018-08-04T12:25:24.103Z,99915.14
2018-08-04T12:27:51.738Z,99916.09
2018-08-04T12:30:19.463Z,99917.06
2018-08-04T12:32:47.094Z,99916.03
2018-08-04T12:35:14.785Z,99912.30
2018-08-04T12:37:43.187Z,99904.85
2018-08-04T12:40:10.950Z,99908.01
2018-08-04T12:42:38.612Z,99907.45
2018-08-04T12:45:06.460Z,99908.11
2018-08-04T12:47:34.204Z,99898.02
2018-08-04T12:50:01.859Z,99893.10
2018-08-04T12:52:29.639Z,99891.72
2018-08-04T12:54:57.542Z,99891.63
2018-08-04T12:57:25.267Z,99900.73
2018-08-04T12:59:53.030Z,99890.67
2018-08-04T13:02:20.944Z,99887.19
2018-08-04T13:04:48.682Z,99884.31
2018-08-04T13:07:16.410Z,99883.98
2018-08-04T13:09:44.121Z,99883.05
2018-08-04T13:12:11.854Z,99886.95
2018-08-04T13:14:39.488Z,99885.52
2018-08-04T13:17:07.514Z,99881.95
2018-08-04T13:19:35.139Z,99879.75
2018-08-04T13:22:03.254Z,99873.12
2018-08-04T13:24:31.103Z,99879.52
2018-08-04T13:26:58.791Z,99876.66
2018-08-04T13:29:26.533Z,99868.35
2018-08-04T13:31:54.278Z,99870.74
2018-08-04T13:34:21.918Z,99869.03
2018-08-04T13:36:49.616Z,99875.56
2018-08-04T13:39:17.218Z,99868.01
2018-08-04T13:41:44.929Z,99865.38
2018-08-04T13:44:12.645Z,99865.53
2018-08-04T13:46:40.340Z,99862.00
2018-08-04T13:49:08.034Z,99865.50
2018-08-04T13:51:35.756Z,99867.14
2018-08-04T13:54:03.386Z,99859.52
2018-08-04T13:56:31.025Z,99855.98
2018-08-04T13:58:58.662Z,99856.70
2018-08-04T14:01:26.618Z,99861.05
2018-08-04T14:03:54.315Z,99858.45
2018-08-04T14:06:22.003Z,99856.84
2018-08-04T14:08:49.695Z,99859.89
2018-08-04T14:11:17.355Z,99857.94
2018-08-04T14:13:45.025Z,99859.79
2018-08-04T14:16:12.674Z,99860.52
2018-08-04T14:18:40.357Z,99853.63
2018-08-04T14:21:08.037Z,99858.52
2018-08-04T14:23:35.769Z,99857.84
2018-08-04T14:26:03.434Z,99858.33
2018-08-04T14:28:31.196Z,99849.09
2018-08-04T14:30:58.910Z,99852.03
2018-08-04T14:33:26.638Z,99848.84
2018-08-04T14:35:54.294Z,99847.55
2018-08-04T14:38:21.909Z,99843.88
2018-08-04T14:40:49.607Z,99845.01
2018-08-04T14:43:17.291Z,99839.66
2018-08-04T14:45:45.066Z,99834.75
2018-08-04T14:48:12.677Z,99834.75
2018-08-04T14:50:40.294Z,99834.88
2018-08-04T14:53:07.925Z,99834.30
2018-08-04T14:55:35.838Z,99830.63
2018-08-04T14:58:03.482Z,99834.47
2018-08-04T15:00:31.239Z,99832.15
2018-08-04T15:02:58.881Z,99830.80
2018-08-04T15:05:26.577Z,99833.79
2018-08-04T15:07:54.191Z,99834.41
2018-08-04T15:10:36.917Z,99837.77
2018-08-04T15:13:05.289Z,99829.88
2018-08-04T15:15:32.961Z,99831.67
2018-08-04T15:18:00.589Z,99837.00
2018-08-04T15:20:28.376Z,99836.11
2018-08-04T15:22:56.028Z,99834.63
2018-08-04T15:25:23.725Z,99829.73
2018-08-04T15:27:51.439Z,99829.25
2018-08-04T15:30:19.022Z,99833.84
2018-08-04T15:32:46.673Z,99830.95
2018-08-04T15:35:14.347Z,99828.31
2018-08-04T15:37:42.007Z,99827.41
2018-08-04T15:40:09.686Z,99830.53
2018-08-04T15:42:37.305Z,99829.90
2018-08-04T15:45:04.970Z,99829.78
2018-08-04T15:47:32.679Z,99833.36
2018-08-04T15:50:00.303Z,99839.48
2018-08-04T15:52:27.997Z,99836.10
2018-08-04T15:54:55.618Z,99841.86
2018-08-04T15:57:23.306Z,99852.61
2018-08-04T15:59:50.945Z,99845.48
2018-08-04T16:02:18.614Z,99848.43
2018-08-04T16:04:46.293Z,99842.19
2018-08-04T16:07:14.117Z,99847.33
2018-08-04T16:09:41.865Z,99848.27
2018-08-04T16:12:09.602Z,99842.52
2018-08-04T16:14:37.217Z,99845.81
2018-08-04T16:17:04.949Z,99847.47
2018-08-04T16:19:32.690Z,99854.41
2018-08-04T16:22:00.315Z,99850.48
2018-08-04T16:24:28.052Z,99855.39
2018-08-04T16:26:55.600Z,99851.66
2018-08-04T16:29:23.345Z,99853.69
2018-08-04T16:31:50.989Z,99860.22
2018-08-04T16:34:18.605Z,99859.93
2018-08-04T16:36:46.298Z,99866.34
2018-08-04T16:39:13.995Z,99869.81
2018-08-04T16:41:41.658Z,99870.63
2018-08-04T16:44:09.330Z,99870.05
2018-08-04T16:46:36.964Z,99871.11
2018-08-04T16:49:04.665Z,99875.84
2018-08-04T16:51:32.305Z,99871.75
2018-08-04T16:53:59.954Z,99871.45
2018-08-04T16:56:27.585Z,99874.34
2018-08-04T16:58:55.255Z,99869.74
2018-08-04T17:01:22.938Z,99874.17
2018-08-04T17:03:50.629Z,99870.89
2018-08-04T17:06:18.258Z,99868.61
2018-08-04T17:08:45.945Z,99870.55
2018-08-04T17:11:13.605Z,99876.48
2018-08-04T17:13:41.230Z,99871.44
2018-08-04T17:16:09.273Z,99870.06
2018-08-04T17:18:36.883Z,99874.14
2018-08-04T17:21:04.555Z,99880.41
2018-08-04T17:23:32.249Z,99876.75
2018-08-04T17:25:59.929Z,99879.23
2018-08-04T17:28:27.660Z,99876.91
2018-08-04T17:30:55.293Z,99876.58
2018-08-04T17:33:22.954Z,99874.28
2018-08-04T17:35:50.606Z,99876.77
2018-08-04T17:38:18.228Z,99876.98
2018-08-04T17:40:45.937Z,99876.98
2018-08-04T17:43:13.633Z,99869.23
2018-08-04T17:45:41.277Z,99866.73
2018-08-04T17:48:08.908Z,99867.17
2018-08-04T17:50:36.637Z,99869.55
2018-08-04T17:53:04.311Z,99874.38
2018-08-04T17:55:32.074Z,99870.52
2018-08-04T17:57:59.737Z,99868.70
2018-08-04T18:00:27.482Z,99869.98
2018-08-04T18:02:55.114Z,99866.89
2018-08-04T18:05:22.801Z,99868.39
2018-08-04T18:07:50.453Z,99870.28
2018-08-04T18:10:36.413Z,99864.24
2018-08-04T18:13:04.330Z,99864.02
2018-08-04T18:15:32.069Z,99864.28
2018-08-04T18:17:59.718Z,99868.16
2018-08-04T18:20:27.435Z,99869.81
2018-08-04T18:22:55.144Z,99871.61
2018-08-04T18:25:22.797Z,99872.84
2018-08-04T18:27:50.495Z,99873.34
2018-08-04T18:30:18.158Z,99870.69
2018-08-04T18:32:45.841Z,99873.48
2018-08-04T18:35:13.468Z,99872.89
2018-08-04T18:37:41.209Z,99872.05
2018-08-04T18:40:08.802Z,99873.19
2018-08-04T18:42:36.434Z,99875.38
2018-08-04T18:45:05.121Z,99876.91
2018-08-04T18:47:32.854Z,99880.00
2018-08-04T18:50:00.529Z,99881.27
2018-08-04T18:52:28.253Z,99883.98
2018-08-04T18:54:55.908Z,99887.45
2018-08-04T18:57:23.577Z,99892.64
2018-08-04T18:59:51.208Z,99893.84
2018-08-04T19:02:18.873Z,99898.38
2018-08-04T19:04:46.589Z,99904.86
2018-08-04T19:07:21.157Z,99903.09
2018-08-04T19:09:48.845Z,99903.00
2018-08-04T19:12:16.514Z,99908.56
2018-08-04T19:14:44.121Z,99913.52
2018-08-04T19:17:11.799Z,99912.18
2018-08-04T19:19:39.458Z,99917.29
2018-08-04T19:22:07.129Z,99912.31
2018-08-04T19:24:34.753Z,99915.30
2018-08-04T19:27:02.382Z,99909.91
2018-08-04T19:29:30.014Z,99916.91
2018-08-04T19:31:57.640Z,99912.55
2018-08-04T19:34:25.253Z,99924.34
2018-08-04T19:36:52.862Z,99919.35
2018-08-04T19:39:20.491Z,99915.97
2018-08-04T19:41:48.265Z,99921.86
2018-08-04T19:44:15.885Z,99928.64
2018-08-04T19:46:43.518Z,99929.89
2018-08-04T19:49:11.149Z,99931.16
2018-08-04T19:51:38.869Z,99933.59
2018-08-04T19:54:06.481Z,99926.98
2018-08-04T19:56:34.139Z,99931.63
2018-08-04T19:59:01.893Z,99938.36
2018-08-04T20:01:29.505Z,99940.32
2018-08-04T20:03:57.224Z,99941.17
2018-08-04T20:06:24.821Z,99942.54
2018-08-04T20:08:52.520Z,99941.00
2018-08-04T20:11:20.324Z,99938.03
2018-08-04T20:13:47.933Z,99937.16
2018-08-04T20:16:15.534Z,99937.05
2018-08-04T20:18:43.146Z,99947.26
2018-08-04T20:21:10.769Z,99946.61
2018-08-04T20:23:38.374Z,99947.80
2018-08-04T20:26:06.039Z,99948.45
2018-08-04T20:28:33.656Z,99951.94
2018-08-04T20:31:01.258Z,99944.23
2018-08-04T20:33:28.933Z,99950.69
2018-08-04T20:35:56.603Z,99950.13
2018-08-04T20:38:24.245Z,99948.08
2018-08-04T20:40:51.940Z,99948.72
2018-08-04T20:43:19.620Z,99946.64
2018-08-04T20:45:47.413Z,99948.20
2018-08-04T20:48:15.113Z,99947.63
2018-08-04T20:50:42.755Z,99952.47
2018-08-04T20:53:10.466Z,99954.17
2018-08-04T20:55:38.156Z,99958.84
2018-08-04T20:58:05.811Z,99958.05
2018-08-04T21:00:38.433Z,99956.06
2018-08-04T21:03:08.822Z,99957.18
2018-08-04T21:05:36.518Z,99959.56
2018-08-04T21:08:04.712Z,99961.75
2018-08-04T21:10:32.445Z,99955.81
2018-08-04T21:13:00.129Z,99964.91
2018-08-04T21:15:27.853Z,99957.59
2018-08-04T21:17:55.462Z,99957.29
2018-08-04T21:20:23.069Z,99956.82
2018-08-04T21:22:51.033Z,99965.20
2018-08-04T21:25:18.662Z,99964.67
2018-08-04T21:27:46.666Z,99966.00
2018-08-04T21:30:14.345Z,99965.95
2018-08-04T21:32:42.135Z,99973.17
2018-08-04T21:35:09.856Z,99976.06
2018-08-04T21:37:37.580Z,99988.57
2018-08-04T21:40:06.021Z,99983.40
2018-08-04T21:42:33.657Z,99999.45
2018-08-04T21:45:01.390Z,100022.59
2018-08-04T21:47:29.033Z,100016.02
2018-08-04T21:49:56.665Z,100015.95
2018-08-04T21:52:24.476Z,100021.01
2018-08-04T21:54:52.133Z,100009.94
2018-08-04T21:57:20.305Z,100010.97
2018-08-04T21:59:47.917Z,100008.50
2018-08-04T22:02:15.713Z,100000.94
2018-08-04T22:04:43.561Z,99999.89
2018-08-04T22:07:54.202Z,99996.94
2018-08-04T22:10:36.248Z,99990.78
2018-08-04T22:13:04.846Z,99993.30
2018-08-04T22:15:32.401Z,99994.53
2018-08-04T22:18:00.125Z,99992.13
2018-08-04T22:20:28.382Z,99994.26
2018-08-04T22:22:58.248Z,99995.79
2018-08-04T22:25:28.217Z,99996.53
2018-08-04T22:27:56.281Z,99996.28
2018-08-04T22:30:24.262Z,100003.59
2018-08-04T22:32:52.129Z,100004.23
2018-08-04T22:35:20.886Z,100005.79
2018-08-04T22:37:48.505Z,100006.52
2018-08-04T22:40:17.162Z,100005.45
2018-08-04T22:42:45.591Z,100003.65
2018-08-04T22:46:02.964Z,99999.05
2018-08-04T22:48:30.698Z,100000.08
2018-08-04T22:50:59.109Z,100001.73
2018-08-04T22:53:26.773Z,100005.53
2018-08-04T22:55:54.538Z,100009.81
2018-08-04T22:58:22.181Z,100006.59
2018-08-04T23:00:49.837Z,100006.08
2018-08-04T23:03:17.760Z,100011.41
2018-08-04T23:05:45.493Z,100015.20
2018-08-04T23:08:13.561Z,100013.58
2018-08-04T23:10:41.853Z,100012.50
2018-08-04T23:13:10.662Z,100015.72
2018-08-04T23:15:38.393Z,100014.64
2018-08-04T23:18:06.297Z,100009.83
2018-08-04T23:20:33.997Z,100010.11
2018-08-04T23:23:01.878Z,100010.91
2018-08-04T23:25:29.626Z,100015.47
2018-08-04T23:27:57.245Z,100013.08
2018-08-04T23:30:25.142Z,100022.74
2018-08-04T23:32:53.483Z,100012.55
2018-08-04T23:35:22.521Z,100013.63
2018-08-04T23:37:50.249Z,100012.58
2018-08-04T23:40:18.202Z,100013.90
2018-08-04T23:42:45.892Z,100013.36
2018-08-04T23:45:13.625Z,100018.98
2018-08-04T23:47:41.245Z,100016.02
2018-08-04T23:50:08.902Z,100016.05
2018-08-04T23:52:36.628Z,100010.67
2018-08-04T23:55:04.345Z,100003.97
2018-08-04T23:57:32.038Z,100007.45
2018-08-04T23:59:59.686Z,100003.15
